Weather observations for the past three days for
Blair Municipal Airport
Metric (Imperial)
Date Time (cdt) Wind (kph) Vis. (km) Weather Sky Cond. Temperature (ºC) Relative Humidity Wind Chill (°C) Heat Index (°C) Pressure Precipitation (cm)
Air Dwpt 6 hour altimeter (cm) sea level (mb) 1 hr 3 hr 6 hr
Max. Min.
08 08:55 Calm 16.09 Fair CLR 15.7 2 40% 75.74 0.0
08 08:35 Calm 16.09 Partly Cloudy SCT120 14.5 1.9 43% 75.74 0.0
08 08:15 Calm 11.27 Mostly Cloudy BKN120 13.8 3.3 49% 75.72 0.0
08 07:55 Calm 16.09 Fair CLR 13.4 1.2 44% 75.69 0.0
08 07:35 Calm 11.27 Partly Cloudy SCT090 12.9 2.3 49% 75.69 0.0
08 07:15 Calm 16.09 Mostly Cloudy BKN090 12.3 0.7 45% 75.69 0.0
08 06:55 S 6 16.09 Overcast BKN090 OVC120 11.8 0.4 13 9.3 46% 75.69 0.0
08 06:35 Calm 16.09 Overcast SCT090 OVC110 11.1 -0.7 44% 75.67 0.0
08 05:55 Calm 16.09 Overcast BKN100 OVC120 11.7 -3.3 35% 75.72 0.0
08 05:35 SE 6 16.09 Overcast OVC110 11.3 -2.8 37% 75.69 0.0
08 05:15 Calm 16.09 Overcast OVC110 11.5 -2.8 37% 75.72 0.0
08 04:55 SE 6 16.09 Mostly Cloudy BKN110 10.4 -1.6 43% 75.72 0.0
08 04:35 Calm 16.09 Partly Cloudy SCT110 9.5 -1.2 48% 75.74 0.0
08 04:15 NE 11 16.09 Mostly Cloudy BKN110 10.7 -1.9 42% 75.74 0.0
08 03:55 E 7 16.09 Overcast OVC110 11.1 -1.6 42% 75.74 0.0
08 03:35 N 7 16.09 Overcast OVC100 11.9 -0.9 41% 75.77 0.0
08 03:15 Calm 16.09 Overcast OVC100 12.3 -2 37% 75.74 0.0
08 02:55 S 6 16.09 Overcast OVC110 12.3 -1.6 38% 75.77 0.0
08 02:35 NE 11 16.09 Overcast OVC100 12.8 -3.1 33% 75.72 0.0
08 02:15 NE 9 16.09 Overcast BKN090 OVC110 12.6 -2.4 35% 75.77 0.0
08 01:55 E 6 16.09 Mostly Cloudy BKN110 12.6 -2.6 35% 75.77 0.0
08 01:35 E 6 16.09 Partly Cloudy SCT120 12.4 -2.8 35% 75.79 0.0
08 01:15 E 7 16.09 Fair CLR 12.6 -3.3 33% 75.77 0.0
08 00:55 NE 11 16.09 Fair CLR 12.5 -2.9 20.2 12 34% 75.74 0.0
08 00:35 NE 9 16.09 Partly Cloudy SCT120 12.8 -3.1 33% 75.77 0.0
08 00:15 E 7 16.09 Partly Cloudy SCT120 13 -4.4 30% 75.77 0.0
07 23:55 NE 9 16.09 Fair CLR 13.2 -4.4 29% 75.77 0.0
07 23:35 E 6 16.09 Fair CLR 12.5 -3.6 33% 75.77 0.0
07 23:15 NE 9 16.09 Fair CLR 13.3 -4 30% 75.77 0.0
07 22:55 NE 11 16.09 Fair CLR 13.7 -3.8 30% 75.77 0.0
07 22:35 NE 11 16.09 Fair CLR 14.3 -4.2 28% 75.77 0.0
07 22:15 NE 7 16.09 Fair CLR 15.1 -4.6 26% 75.77 0.0
07 21:55 NE 7 16.09 Fair CLR 16.2 -5 23% 75.77 0.0
07 21:35 NE 9 16.09 Fair CLR 16.5 -5.1 22% 75.74 0.0
07 21:15 N 7 16.09 Fair CLR 16.5 -4.6 23% 75.74 0.0
07 20:55 N 7 16.09 Fair CLR 17.2 -4.8 22% 75.72 0.0
07 20:15 N 7 16.09 Fair CLR 17.6 -3.7 23% 75.69 0.0
07 19:55 N 7 16.09 Fair CLR 18.5 -3.9 22% 75.69 0.0
07 19:35 N 13 16.09 Fair CLR 19.3 -3.7 21% 75.67 0.0
07 19:15 N 11 16.09 Fair CLR 19.8 -3.7 20% 75.67 0.0
07 18:55 NW 11 16.09 Fair CLR 20.3 -4.2 21.4 19.1 19% 75.67 0.0
07 18:35 NW 9 G 28 16.09 Fair CLR 20.5 -5.1 17% 75.67 0.0
07 18:15 NW 15 16.09 Fair CLR 20.6 -4.2 19% 75.67 0.0
07 17:55 NW 20 16.09 Fair CLR 20.9 -3.4 19% 75.64 0.0
07 17:35 W 13 G 30 16.09 Fair CLR 20.8 -3.4 19% 75.64 0.0
07 17:15 NW 7 16.09 Fair CLR 20.8 -3.9 19% 75.64 0.0
07 16:55 NW 20 G 30 16.09 Fair CLR 21.2 -3.3 19% 75.64 0.0
07 16:35 W 17 G 26 16.09 Fair CLR 21.3 -3.8 18% 75.67 0.0
07 16:15 W 13 G 28 16.09 Fair CLR 20.9 -5.2 17% 75.67 0.0
07 15:55 NW 20 G 30 16.09 Fair CLR 21 -4.5 18% 75.67 0.0
07 15:35 NW 15 16.09 Fair CLR 20.7 -2.5 21% 75.69 0.0
07 15:15 W 20 G 30 16.09 Partly Cloudy SCT080 21 -2.4 21% 75.69 0.0
07 14:55 W 11 16.09 Partly Cloudy SCT080 20.8 -2.4 21% 75.69 0.0
07 14:35 N 7 G 30 16.09 Partly Cloudy SCT080 20.2 0.5 27% 75.69 0.0
07 14:15 S 11 16.09 Partly Cloudy SCT080 20.9 0.8 26% 75.69 0.0
07 13:55 W 9 16.09 Partly Cloudy SCT075 20.1 1.5 29% 75.72 0.0
07 13:35 S 13 G 33 16.09 Partly Cloudy SCT075 19.9 0.2 27% 75.72 0.0
07 13:15 SW 15 G 20 16.09 Partly Cloudy SCT075 19.5 0 27% 75.74 0.0
07 12:55 SW 22 G 37 16.09 Fair CLR 18.8 0 19.2 6.2 28% 75.74 0.0
07 12:35 SW 15 G 31 16.09 Partly Cloudy SCT065 18.7 -0.3 28% 75.77 0.0
07 12:15 SW 19 G 26 16.09 Fair CLR 18 0.7 31% 75.79 0.0
07 11:55 S 17 G 26 16.09 Fair CLR 17.6 0.9 33% 75.79 0.0
07 11:35 SW 19 16.09 Fair CLR 17.1 0.7 33% 75.82 0.0
07 11:15 S 15 16.09 Fair CLR 16.5 1.7 37% 75.84 0.0
07 10:55 SW 11 16.09 Fair CLR 15.6 2 40% 75.84 0.0
07 10:35 SW 13 16.09 Fair CLR 14.8 2.2 43% 75.84 0.0
07 10:15 SW 13 G 26 16.09 Fair CLR 14.6 2.4 44% 75.87 0.0
07 09:55 SW 22 G 28 16.09 Fair CLR 13.6 2.6 48% 75.9 0.0
07 09:35 SW 15 16.09 Fair CLR 12.2 3.2 54% 75.9 0.0
07 09:15 SW 17 16.09 Fair CLR 11.5 3.3 57% 75.9 0.0
07 08:55 SW 19 16.09 Fair CLR 10.6 3.2 61% 75.9 0.0
07 08:35 SW 19 16.09 Fair CLR 9.7 3.1 64% 7 75.9 0.0
07 08:15 SW 19 16.09 Fair CLR 9.1 3 66% 7 75.9 0.0
07 07:55 SW 19 16.09 Fair CLR 8.4 2.8 68% 6 75.92 0.0
07 07:35 SW 15 16.09 Fair CLR 7.5 2.6 71% 5 75.92 0.0
07 07:15 S 15 16.09 Fair CLR 6.7 2.4 74% 4 75.92 0.0
07 06:55 SW 15 16.09 Fair CLR 6.1 2 7.6 5.8 75% 3 75.92 0.0
07 06:35 SW 13 16.09 Fair CLR 6 2 76% 4 75.92 0.0
07 06:15 SW 15 16.09 Fair CLR 6.1 2 75% 3 75.92 0.0
07 05:55 SW 13 16.09 Fair CLR 6.3 1.8 73% 4 75.92 0.0
07 05:35 SW 11 16.09 Fair CLR 6.7 1.9 72% 5 75.92 0.0
07 05:15 SW 17 16.09 Fair CLR 6.9 1.8 70% 4 75.92 0.0
07 04:55 SW 17 16.09 Fair CLR 7 1.6 69% 4 75.92 0.0
07 04:35 SW 13 16.09 Fair CLR 6.5 1.1 69% 4 75.95 0.0
07 04:15 SW 15 16.09 Fair CLR 6.4 0.7 67% 4 75.95 0.0
07 03:55 S 15 16.09 Fair CLR 6.3 0 64% 4 75.97 0.0
07 03:35 SW 13 16.09 Fair CLR 6.4 -0.8 60% 4 76 0.0
07 03:15 S 11 16.09 Fair CLR 6.3 -1.5 58% 4 76.02 0.0
07 02:55 SW 9 16.09 Fair CLR 6 -2 57% 4 76.02 0.0
07 02:35 SW 9 16.09 Fair CLR 7.1 -2.3 52% 6 76.05 0.0
07 02:15 S 11 16.09 Fair CLR 6.3 -2.5 54% 4 76.07 0.0
07 01:55 S 7 16.09 Fair CLR 6.8 -3.2 49% 6 76.07 0.0
07 01:35 SW 6 16.09 Fair CLR 7.5 -3.5 46% 76.1 0.0
07 01:15 S 9 16.09 Fair CLR 6 -4 49% 4 76.1 0.0
07 00:55 S 11 16.09 Partly Cloudy SCT095 5.7 -4.2 14.7 5.1 49% 4 76.12 0.0
07 00:35 SE 6 16.09 Partly Cloudy SCT095 7.4 -5 41% 76.12 0.0
07 00:15 Calm 16.09 Fair CLR 7.5 -5.4 40% 76.12 0.0
06 23:55 S 7 16.09 Fair CLR 7.7 -6.1 37% 7 76.12 0.0
06 23:35 S 6 16.09 Partly Cloudy SCT100 7.6 -6.7 36% 76.15 0.0
06 23:15 S 6 16.09 Partly Cloudy SCT100 8.5 -7.5 32% 76.15 0.0
06 22:55 Calm 16.09 Fair CLR 8.5 -7.5 32% 76.17 0.0
06 22:15 S 6 16.09 Partly Cloudy SCT100 9.3 -7.3 31% 76.17 0.0
06 21:55 Calm 16.09 Partly Cloudy SCT100 9.4 -7.2 31% 76.17 0.0
06 21:35 Calm 16.09 Fair CLR 11.1 -8.4 25% 76.17 0.0
06 21:15 Calm 16.09 Fair CLR 11.6 -8.6 24% 76.15 0.0
06 20:55 Calm 16.09 Fair CLR 11.5 -8.1 25% 76.15 0.0
06 20:35 Calm 16.09 Fair CLR 12.4 -8.5 23% 76.15 0.0
06 20:15 Calm 16.09 Fair CLR 12.7 -8.1 23% 76.15 0.0
06 19:55 Calm 16.09 Fair CLR 13.1 -7 24% 76.15 0.0
06 19:35 W 6 16.09 Partly Cloudy SCT095 14 -8.5 20% 76.17 0.0
06 19:15 W 9 16.09 Partly Cloudy SCT095 14.6 -8.2 20% 76.17 0.0
06 18:55 W 9 16.09 Partly Cloudy SCT095 14.4 -8.3 15.4 11.5 20% 76.2 0.0
06 18:35 W 15 16.09 Partly Cloudy SCT095 14.9 -8.6 19% 76.2 0.0
06 18:15 W 7 16.09 Mostly Cloudy BKN095 14.8 -8.9 19% 76.2 0.0
06 17:55 W 7 16.09 Mostly Cloudy BKN095 14.7 -8.5 19% 76.23 0.0
06 17:35 W 15 G 28 16.09 Partly Cloudy SCT095 15.2 -8.5 19% 76.23 0.0
06 17:15 W 15 16.09 Mostly Cloudy BKN095 14.9 -8.5 19% 76.23 0.0
06 16:55 W 9 16.09 Mostly Cloudy BKN095 14.9 -7.6 21% 76.25 0.0
06 16:35 W 13 16.09 Mostly Cloudy BKN095 14.4 -8.3 20% 76.28 0.0
06 16:15 W 17 16.09 Mostly Cloudy BKN085 14.6 -8.6 19% 76.3 0.0
06 15:55 SW 24 G 31 16.09 Overcast OVC085 14.2 -8.8 20% 76.3 0.0
06 15:35 W 11 G 26 16.09 Mostly Cloudy BKN085 13.5 -8.7 21% 76.33 0.0
06 15:15 W 13 G 33 16.09 Mostly Cloudy BKN085 13 -8.7 21% 76.33 0.0
06 14:55 NW 17 G 28 16.09 Mostly Cloudy BKN085 14.3 -7.1 22% 76.35 0.0
06 14:35 NW 22 G 28 16.09 Mostly Cloudy BKN075 14.1 -6.9 23% 76.35 0.0
06 14:15 W 17 G 28 16.09 Mostly Cloudy BKN075 13.5 -7.4 23% 76.35 0.0
06 13:55 W 19 G 30 16.09 Mostly Cloudy BKN075 12.9 -7.7 23% 76.38 0.0
06 13:35 W 11 G 44 16.09 Mostly Cloudy BKN075 12.2 -7 26% 76.38 0.0
06 13:15 W 19 G 28 16.09 Mostly Cloudy SCT075 BKN085 12.8 -6.9 25% 76.4 0.0
06 12:55 NW 24 G 31 16.09 Partly Cloudy SCT080 12.4 -7.2 12.7 2.4 25% 76.4 0.0
06 12:35 NW 17 16.09 Mostly Cloudy BKN080 12.6 -5.7 28% 76.43 0.0
06 12:15 NW 15 16.09 Mostly Cloudy BKN080 11.6 -6.4 28% 76.45 0.0
06 11:55 W 13 G 28 16.09 Partly Cloudy SCT065 11.7 -6.5 28% 76.45 0.0
06 11:35 NW 22 G 28 16.09 Partly Cloudy SCT065 11.6 -6.1 29% 76.45 0.0
06 10:55 NW 17 16.09 Partly Cloudy SCT065 10.6 -6.2 30% 76.45 0.0
06 10:35 W 15 16.09 Partly Cloudy SCT065 10 -5.9 32% 8 76.45 0.0
06 10:15 N 13 16.09 Fair CLR 9.8 -5.2 35% 8 76.45 0.0
06 09:15 NW 9 16.09 Fair CLR 8.3 -4.9 39% 7 76.45 0.0
06 08:55 NW 11 16.09 Fair CLR 7.8 -4.9 41% 6 76.43 0.0
06 08:35 W 6 16.09 Fair CLR 7 -4.2 45% 76.43 0.0
06 08:15 Calm 16.09 Fair CLR 5.8 -3.5 52% 76.4 0.0
06 07:55 NW 9 16.09 Fair CLR 4.4 -4.7 52% 2 76.4 0.0
06 07:35 NW 7 16.09 Fair CLR 3.4 -4.6 56% 2 76.4 0.0
06 07:15 NW 7 16.09 Fair CLR 2.7 -4.9 58% 1 76.35 0.0
06 06:55 NW 6 16.09 Fair CLR 2.3 -5 7.5 1.9 59% 76.33 0.0
06 06:35 NW 6 16.09 Fair CLR 2.1 -5 60% 76.3 0.0
06 06:15 Calm 16.09 Fair CLR 2.3 -5 59% 76.3 0.0
06 05:55 Calm 16.09 Fair CLR 2.9 -5.3 55% 76.3 0.0
06 05:35 NW 6 16.09 Fair CLR 3.2 -5.4 54% 76.28 0.0
06 05:15 N 7 16.09 Fair CLR 4.5 -5.7 48% 3 76.28 0.0
06 04:55 N 7 16.09 Fair CLR 4.5 -5.6 48% 3 76.28 0.0
06 04:35 N 9 16.09 Fair CLR 4.6 -5.5 48% 3 76.25 0.0
06 04:15 N 9 16.09 Fair CLR 5 -5.5 47% 3 76.25 0.0
06 03:55 N 9 16.09 Fair CLR 5.5 -5.3 46% 4 76.23 0.0
06 03:35 N 11 16.09 Fair CLR 5.9 -5.4 44% 4 76.23 0.0
06 03:15 N 9 16.09 Fair CLR 6.1 -5.6 43% 4 76.23 0.0
06 02:55 N 9 16.09 Fair CLR 6.3 -5.6 43% 5 76.23 0.0
06 02:35 N 9 16.09 Fair CLR 6.3 -5.5 43% 5 76.2 0.0
06 02:15 N 7 16.09 Fair CLR 6.5 -5.5 42% 5 76.2 0.0
06 01:55 N 7 16.09 Fair CLR 6.8 -5.7 41% 6 76.2 0.0
06 01:35 N 11 16.09 Fair CLR 7.2 -6.1 39% 5 76.2 0.0
06 01:15 N 9 16.09 Fair CLR 7.2 -5.8 39% 6 76.2 0.0
06 00:55 N 11 16.09 Fair CLR 7.4 -6.1 11.8 7.4 38% 6 76.2 0.0
06 00:35 N 11 16.09 Fair CLR 7.5 -6.1 38% 6 76.2 0.0
06 00:15 N 7 16.09 Fair CLR 7.6 -5.7 39% 7 76.15 0.0
05 23:35 N 9 16.09 Fair CLR 8.3 -6 36% 7 76.15 0.0
05 23:15 N 9 16.09 Fair CLR 8.3 -5.9 36% 7 76.12 0.0
05 22:55 N 9 16.09 Fair CLR 8.5 -6 36% 7 76.12 0.0
05 22:35 N 11 16.09 Fair CLR 8.6 -6.1 35% 7 76.12 0.0
05 22:15 N 9 16.09 Fair CLR 8.8 -6.1 35% 8 76.1 0.0
05 21:55 N 9 16.09 Fair CLR 9 -6.1 34% 8 76.1 0.0
05 21:35 N 7 16.09 Fair CLR 9.3 -6.4 33% 9 76.07 0.0
05 21:15 N 13 16.09 Fair CLR 9.8 -6.7 31% 8 76.05 0.0
05 20:55 N 15 16.09 Fair CLR 10.2 -7.1 29% 76.02 0.0
05 20:35 N 19 16.09 Fair CLR 10.5 -7.1 29% 76 0.0
05 20:15 N 24 G 33 16.09 Fair CLR 10.6 -6.8 29% 76 0.0
05 19:55 NW 19 G 28 16.09 Fair CLR 11 -6.3 29% 76 0.0
05 19:35 N 17 G 28 16.09 Fair CLR 11.2 -5.8 30% 75.97 0.0
05 19:15 N 19 16.09 Fair CLR 11.5 -6 29% 75.97 0.0
05 18:55 NW 28 G 33 16.09 Fair CLR 11.8 -6.4 14.2 11.8 28% 75.97 0.0
05 18:35 NW 24 G 33 16.09 Fair CLR 12 -6 28% 75.97 0.0
05 18:15 NW 22 G 35 16.09 Fair CLR 12.1 -6.2 28% 75.95 0.0
05 17:55 N 26 G 39 16.09 Partly Cloudy SCT070 12.3 -6.1 27% 75.95 0.0
05 17:35 NW 26 G 41 16.09 Partly Cloudy SCT070 13.2 -5.2 28% 75.95 0.0
05 17:15 N 22 G 30 16.09 Partly Cloudy SCT070 13.5 -5.2 27% 75.92 0.0
05 16:55 NW 22 G 33 16.09 Partly Cloudy SCT070 13.2 -5.8 26% 75.92 0.0
05 16:35 NW 17 G 35 16.09 Partly Cloudy SCT070 13.4 -4.9 28% 75.92 0.0
05 16:15 NW 24 G 31 16.09 Partly Cloudy SCT070 13.3 -5.7 26% 75.95 0.0
05 15:35 N 20 G 28 16.09 Mostly Cloudy BKN070 13.1 -4.7 29% 75.97 0.0
05 15:15 NW 19 G 39 16.09 Partly Cloudy SCT070 13.5 -4.8 28% 75.97 0.0
05 14:55 N 24 G 35 16.09 Partly Cloudy SCT070 13.4 -4.3 29% 75.97 0.0
05 14:35 NW 26 G 39 16.09 Partly Cloudy SCT070 13.7 -4.1 29% 75.97 0.0
05 14:15 NW 17 G 26 16.09 Partly Cloudy SCT070 14.1 -3.4 30% 76 0.0
05 13:55 N 20 G 26 16.09 Partly Cloudy SCT070 SCT085 13.7 -3.9 29% 76 0.0
05 13:35 NW 24 16.09 Mostly Cloudy BKN085 13.5 -4.4 29% 76.02 0.0
05 13:15 NW 17 G 35 16.09 Partly Cloudy SCT085 13.1 -4.3 30% 76.02 0.0
05 12:55 N 26 G 33 16.09 Fair CLR 13.4 -3.8 13.4 7.5 30% 76.02 0.0
05 12:35 NW 22 G 30 16.09 Partly Cloudy SCT065 13.3 -3.3 32% 76.02 0.0
05 12:15 NW 11 16.09 Partly Cloudy SCT065 12.4 -2.7 35% 76.02 0.0
05 11:55 N 17 16.09 Fair CLR 12.2 -2.3 37% 76.05 0.0
05 11:35 Calm 16.09 Fair CLR 11 -2.2 40% 76.05 0.0
05 11:15 NW 6 16.09 Fair CLR 10.5 -1.7 43% 76.02 0.0
05 10:55 N 9 16.09 Partly Cloudy SCT120 10 -1.1 46% 9 76.02 0.0
05 10:15 NW 13 16.09 Fair CLR 9 -0.4 52% 7 76.02 0.0
05 09:55 N 15 16.09 Partly Cloudy SCT100 8.9 0.3 55% 7 76 0.0
05 09:35 N 13 16.09 Mostly Cloudy BKN100 8.7 0.4 56% 7 76 0.0
Date Time (cdt) Wind (kph) Vis. (km) Weather Sky Cond. Air Dwpt Max. Min. Relative Humidity Wind Chill (°C) Heat Index (°C) altimeter (cm) sea level (mb) 1 hr 3 hr 6 hr
6 hour
Temperature (ºC) Pressure Precipitation (cm)